Taza, Morocco

12:46 PM WEST on July 26, 2014 (GMT +0100)
Saiss (GMFF) Elev 1900 ft | 33.93 °N, 4.97 °W | Change Station

Current weather conditions updated 16 minutes ago

Clear
Clear
84 °F
Feels Like 84 °F
N
7
Wind Variable Wind from NW

Today is forecast to be Much Warmer than yesterday.

Today
High -- | Low -- °F
--% Chance of Precip.
Yesterday
High -- | Low -- °F
Precip. -- in
6:22 AM 8:22 PM
Waning Crescent, 0% visible
Pressure 30.01 in
Visibility -9999.0 miles
Clouds
Heat Index 84 °F
Dew Point 61 °F
Humidity 45%
Rainfall 0.00 in
Snow Depth Not available.
UV Not available.
Pollen Not available.
Air Quality Not available.
Flu Activity Not available.
METAR GMFF 261130Z 32006KT 240V110 CAVOK 29/16 Q1016 NOSIG

More Conditions Fewer Conditions

Pressure 30.01 in
Visibility -9999.0 miles
Clouds
Heat Index 84 °F
Dew Point 61 °F
Humidity 45%
Rainfall 0.00 in
Snow Depth Not available.
UV Not available.
Pollen Not available.
Air Quality Not available.
Flu Activity Not available.
METAR GMFF 261130Z 32006KT 240V110 CAVOK 29/16 Q1016 NOSIG

More Conditions Fewer Conditions

10-Day Weather Forecast

Almanac

Astronomy

Jul. 26, 2014 Rise Set
Actual Time 6:22 AM WEST 8:22 PM WEST
Civil Twilight 5:54 AM WEST 8:49 PM WEST
Nautical Twilight 5:20 AM WEST 9:23 PM WEST
Astronomical Twilight 4:44 AM WEST 9:59 PM WEST
Moon 5:59 AM WEST 7:51 PM WEST
Length of Visible Light 14h 55m
Length of Day
13h 59m
Tomorrow will be 1m 26s shorter.
Waning Crescent, 0% of the Moon is Illuminated
Today
Waning Crescent
Jul 26
New
Aug 3
First Quarter
Aug 10
Full
Aug 17
Last Quarter

Yesterday's Extremes

Country Highs Country Lows

Community

WunderPhotos

Upload Photos

1,737,538 photos uploaded!

Nearby

Snow Depth

Not available.

Earthquake Activity

City Distance Mag. Time & Date
No recent earthquake activity has been reported nearby.
Minimum magnitude displayed is 2.5.

Coastal Water Temperatures

Place Temperature
No Stations Reporting

Nearby Weather Stations

There are no personal weather stations in this area.